Time;durP1;ratioP1;P1;durP2;ratioP2;P2;SDS_P1;SDS_P2;PMS_P1;PMS_P2;Temp;Humidity;BMP_temperature;BMP_pressure;BME280_temperature;BME280_humidity;BME280_pressure;Samples;Min_cycle;Max_cycle;Signal;HPM_P1;HPM_P2
2021/01/08 00:01:39;;;;;;;9.70;7.13;;;2.70;1.00;;;;;;5023530;28;20655;-62
2021/01/08 00:04:05;;;;;;;8.23;6.32;;;2.60;1.00;;;;;;4991134;28;20201;-62
2021/01/08 00:06:30;;;;;;;9.77;7.30;;;2.60;1.00;;;;;;4991895;28;20217;-62
2021/01/08 00:08:56;;;;;;;9.13;6.73;;;2.50;1.00;;;;;;4991291;28;20191;-65
2021/01/08 00:11:24;;;;;;;7.63;6.17;;;2.50;1.00;;;;;;4991662;28;20631;-62
2021/01/08 00:13:50;;;;;;;8.55;6.88;;;2.50;1.00;;;;;;4991050;28;20610;-62
2021/01/08 00:16:16;;;;;;;8.00;6.82;;;2.50;1.00;;;;;;4991828;28;20265;-62
2021/01/08 00:18:41;;;;;;;9.37;7.17;;;2.60;1.00;;;;;;4991085;28;20675;-62
2021/01/08 00:21:07;;;;;;;8.73;6.80;;;2.60;1.00;;;;;;4991750;28;20484;-62
2021/01/08 00:23:32;;;;;;;11.47;6.97;;;2.50;1.00;;;;;;5005456;28;20189;-62
2021/01/08 00:25:58;;;;;;;9.40;6.33;;;2.50;1.00;;;;;;4991908;28;20186;-62
2021/01/08 00:28:24;;;;;;;8.17;6.43;;;2.50;1.00;;;;;;4990856;28;20194;-63
2021/01/08 00:30:49;;;;;;;10.20;6.90;;;2.50;1.00;;;;;;4987507;28;20210;-62
2021/01/08 00:33:15;;;;;;;9.33;6.70;;;2.60;1.00;;;;;;4991107;28;20189;-63
2021/01/08 00:35:41;;;;;;;7.60;6.57;;;2.60;1.00;;;;;;4991465;28;20677;-62
2021/01/08 00:38:09;;;;;;;9.13;6.60;;;2.60;1.00;;;;;;4989224;28;20194;-63
2021/01/08 00:40:36;;;;;;;9.40;7.50;;;2.60;1.00;;;;;;4991429;28;20235;-62
2021/01/08 00:43:01;;;;;;;8.20;6.60;;;2.60;1.00;;;;;;4991184;28;20257;-62
2021/01/08 00:45:27;;;;;;;8.60;6.80;;;2.60;1.00;;;;;;4991541;28;20183;-62
2021/01/08 00:47:52;;;;;;;8.90;6.33;;;2.70;1.00;;;;;;4990103;28;20665;-62
2021/01/08 00:50:19;;;;;;;7.77;6.20;;;2.70;1.00;;;;;;4990520;28;20214;-62
2021/01/08 00:52:44;;;;;;;8.13;6.13;;;2.80;99.90;;;;;;4988185;28;20273;-63
2021/01/08 00:55:10;;;;;;;8.03;6.70;;;2.80;1.00;;;;;;4991394;28;20271;-62
2021/01/08 00:57:36;;;;;;;8.55;6.70;;;2.80;99.90;;;;;;4989601;28;20189;-62
2021/01/08 01:00:04;;;;;;;8.00;6.80;;;2.80;1.00;;;;;;4991362;28;20282;-62
2021/01/08 01:02:31;;;;;;;9.82;7.45;;;2.80;99.90;;;;;;4990693;28;20191;-62
2021/01/08 01:04:57;;;;;;;8.63;6.13;;;2.70;99.90;;;;;;4990920;28;20198;-62
2021/01/08 01:07:23;;;;;;;8.33;7.03;;;2.70;1.00;;;;;;4990134;28;20601;-62
2021/01/08 01:09:48;;;;;;;7.07;5.80;;;2.80;1.00;;;;;;4990272;28;20713;-62
2021/01/08 01:12:14;;;;;;;9.57;7.17;;;2.70;1.00;;;;;;4988951;28;20188;-62
2021/01/08 01:14:39;;;;;;;9.47;6.73;;;2.60;1.00;;;;;;4990299;28;20571;-62
2021/01/08 01:17:06;;;;;;;10.63;6.47;;;2.60;1.00;;;;;;4990818;28;20182;-62
2021/01/08 01:19:31;;;;;;;8.90;7.07;;;2.60;1.00;;;;;;4988431;28;20873;-62
2021/01/08 01:21:57;;;;;;;7.70;6.40;;;2.70;1.00;;;;;;4990732;28;20270;-62
2021/01/08 01:24:23;;;;;;;10.27;6.37;;;2.70;1.00;;;;;;4988841;28;20194;-62
2021/01/08 01:26:55;;;;;;;10.00;7.17;;;2.70;1.00;;;;;;4990374;28;20180;-63
2021/01/08 01:29:21;;;;;;;8.30;6.43;;;2.70;1.00;;;;;;4990207;28;20244;-63
2021/01/08 01:31:47;;;;;;;9.68;7.00;;;2.70;1.00;;;;;;4989564;28;20179;-62
2021/01/08 01:34:13;;;;;;;6.93;5.80;;;2.70;1.00;;;;;;5004768;28;20191;-62
2021/01/08 01:36:39;;;;;;;9.57;6.57;;;2.60;1.00;;;;;;4989855;28;20183;-62
2021/01/08 01:39:04;;;;;;;8.03;6.47;;;2.70;1.00;;;;;;4988380;28;20435;-63
2021/01/08 01:41:30;;;;;;;8.27;6.70;;;2.70;1.00;;;;;;4989916;28;20219;-62
2021/01/08 01:43:56;;;;;;;8.55;6.65;;;2.70;1.00;;;;;;4989736;28;20629;-63
2021/01/08 01:46:22;;;;;;;8.83;7.00;;;2.70;1.00;;;;;;4990266;28;20199;-62
2021/01/08 01:48:51;;;;;;;13.40;6.77;;;2.70;1.00;;;;;;4989686;28;20246;-63
2021/01/08 01:51:20;;;;;;;9.88;6.45;;;2.70;1.00;;;;;;4989335;28;20546;-63
2021/01/08 01:53:47;;;;;;;9.50;7.13;;;2.70;1.00;;;;;;4988451;28;21110;-62
2021/01/08 01:56:12;;;;;;;9.73;6.50;;;2.70;1.00;;;;;;4989698;28;20218;-62
2021/01/08 01:58:38;;;;;;;9.00;6.30;;;2.70;1.00;;;;;;4989760;28;20221;-62
2021/01/08 02:01:04;;;;;;;8.50;6.53;;;2.70;1.00;;;;;;4985446;28;20195;-62
2021/01/08 02:03:45;;;;;;;7.03;6.00;;;2.70;1.00;;;;;;4989583;28;20239;-62
2021/01/08 02:06:15;;;;;;;9.45;6.25;;;2.70;1.00;;;;;;4985403;28;20191;-62
2021/01/08 02:08:46;;;;;;;8.57;6.50;;;2.60;1.00;;;;;;4989008;28;20934;-63
2021/01/08 02:11:15;;;;;;;9.82;6.97;;;2.60;1.00;;;;;;4989089;28;20218;-62
2021/01/08 02:13:42;;;;;;;10.43;7.22;;;2.70;1.00;;;;;;4989118;28;20193;-62
2021/01/08 02:16:11;;;;;;;9.10;6.72;;;2.70;1.00;;;;;;4990135;28;20182;-63
2021/01/08 02:18:38;;;;;;;10.80;7.25;;;2.70;1.00;;;;;;4986266;28;20195;-63
2021/01/08 02:21:07;;;;;;;8.30;6.60;;;2.70;1.00;;;;;;4986848;28;20203;-63
2021/01/08 02:23:59;;;;;;;8.10;6.35;;;2.70;1.00;;;;;;4988485;28;20264;-62
2021/01/08 02:26:25;;;;;;;8.05;6.43;;;2.70;1.00;;;;;;4999738;28;20249;-63
2021/01/08 02:28:51;;;;;;;7.83;6.40;;;2.70;1.00;;;;;;4989704;28;20612;-63
2021/01/08 02:31:18;;;;;;;7.28;6.30;;;2.70;1.00;;;;;;4988161;28;20517;-61
2021/01/08 02:33:44;;;;;;;7.85;6.35;;;2.70;1.00;;;;;;4989877;28;20541;-62
2021/01/08 02:36:10;;;;;;;8.65;6.50;;;2.70;1.00;;;;;;4988763;28;20199;-60
2021/01/08 02:38:38;;;;;;;8.73;6.20;;;2.60;1.00;;;;;;4988797;28;20180;-62
2021/01/08 02:41:06;;;;;;;8.30;7.18;;;2.60;1.00;;;;;;4988020;28;20239;-61
2021/01/08 02:43:33;;;;;;;8.85;7.25;;;2.60;1.00;;;;;;4989391;28;20202;-62
2021/01/08 02:46:00;;;;;;;8.57;6.18;;;2.60;1.00;;;;;;4988558;28;20189;-61
2021/01/08 02:48:26;;;;;;;8.63;6.65;;;2.60;1.00;;;;;;4991480;28;20181;-61
2021/01/08 02:50:51;;;;;;;9.32;6.53;;;2.60;1.00;;;;;;4993054;28;20366;-61
2021/01/08 02:53:21;;;;;;;8.00;6.60;;;2.60;1.00;;;;;;4992130;28;20632;-62
2021/01/08 02:55:56;;;;;;;8.35;6.70;;;2.70;1.00;;;;;;4988964;28;20266;-62
2021/01/08 02:58:22;;;;;;;9.52;7.38;;;2.60;1.00;;;;;;4992384;28;20705;-61
2021/01/08 03:00:50;;;;;;;9.07;6.82;;;2.60;1.00;;;;;;4992813;28;20241;-61
2021/01/08 03:03:16;;;;;;;8.40;7.15;;;2.60;1.00;;;;;;4991701;28;20199;-61
2021/01/08 03:05:41;;;;;;;9.23;6.93;;;2.60;1.00;;;;;;4992485;28;20249;-61
2021/01/08 03:08:08;;;;;;;9.03;6.83;;;2.70;1.00;;;;;;4991887;28;20878;-61
2021/01/08 03:10:34;;;;;;;6.90;6.13;;;2.70;1.00;;;;;;4992646;28;20274;-61
2021/01/08 03:13:02;;;;;;;8.67;7.33;;;2.70;1.00;;;;;;4992963;28;20207;-61
2021/01/08 03:15:28;;;;;;;8.13;6.50;;;2.60;1.00;;;;;;4989356;28;20187;-61
2021/01/08 03:17:53;;;;;;;7.83;6.50;;;2.70;1.00;;;;;;4990316;28;20545;-62
2021/01/08 03:20:19;;;;;;;7.13;6.33;;;2.60;1.00;;;;;;4990866;28;20952;-61
2021/01/08 03:22:45;;;;;;;8.53;6.73;;;2.70;1.00;;;;;;4991497;28;20257;-62
2021/01/08 03:25:12;;;;;;;7.47;6.13;;;2.70;1.00;;;;;;4988141;28;20195;-62
2021/01/08 03:27:37;;;;;;;6.90;6.20;;;2.70;1.00;;;;;;4992955;28;20183;-62
2021/01/08 03:30:05;;;;;;;8.43;6.50;;;2.80;1.00;;;;;;4992362;28;20219;-62
2021/01/08 03:32:31;;;;;;;7.40;6.35;;;2.80;1.00;;;;;;4991531;28;20257;-62
2021/01/08 03:34:57;;;;;;;8.20;5.72;;;2.90;1.00;;;;;;5004833;28;20191;-62
2021/01/08 03:37:22;;;;;;;7.10;6.10;;;2.80;1.00;;;;;;4991828;28;20317;-62
2021/01/08 03:39:48;;;;;;;7.93;6.67;;;2.80;1.00;;;;;;4992012;28;20239;-63
2021/01/08 03:42:14;;;;;;;8.47;7.10;;;2.80;1.00;;;;;;4991413;28;20183;-62
2021/01/08 03:44:39;;;;;;;9.93;7.30;;;2.80;1.00;;;;;;4989472;28;20188;-62
2021/01/08 03:47:05;;;;;;;8.00;6.47;;;2.80;1.00;;;;;;4990660;28;20188;-62
2021/01/08 03:49:30;;;;;;;7.97;7.00;;;2.80;1.00;;;;;;4987269;28;20219;-62
2021/01/08 03:51:56;;;;;;;9.57;7.17;;;2.80;1.00;;;;;;4991554;28;20183;-62
2021/01/08 03:54:22;;;;;;;8.30;6.60;;;2.80;1.00;;;;;;4990717;28;20188;-62
2021/01/08 03:56:47;;;;;;;9.80;6.43;;;2.80;1.00;;;;;;4991541;28;20221;-62
2021/01/08 03:59:13;;;;;;;10.50;7.17;;;2.90;1.00;;;;;;4990641;28;20215;-62
2021/01/08 04:01:38;;;;;;;9.83;7.40;;;2.90;1.00;;;;;;4989999;28;20267;-62
2021/01/08 04:04:04;;;;;;;9.57;7.30;;;2.90;1.00;;;;;;4990535;28;20205;-62
2021/01/08 04:06:30;;;;;;;8.23;6.57;;;2.80;1.00;;;;;;4989085;28;20260;-62
2021/01/08 04:08:57;;;;;;;11.00;7.30;;;2.80;1.00;;;;;;4989670;28;20673;-62
2021/01/08 04:11:22;;;;;;;9.07;6.60;;;2.80;1.00;;;;;;4991291;28;20193;-62
2021/01/08 04:13:48;;;;;;;8.00;6.70;;;2.70;1.00;;;;;;4989691;28;20617;-62
2021/01/08 04:16:14;;;;;;;8.70;7.30;;;2.70;1.00;;;;;;4989863;28;20281;-62
2021/01/08 04:18:39;;;;;;;8.77;6.97;;;2.70;1.00;;;;;;4990057;28;20438;-62
2021/01/08 04:21:05;;;;;;;8.90;6.60;;;2.70;1.00;;;;;;4989143;28;20198;-62
2021/01/08 04:23:31;;;;;;;9.73;6.93;;;2.70;1.00;;;;;;4989370;28;20195;-62
2021/01/08 04:25:56;;;;;;;9.07;7.50;;;2.70;1.00;;;;;;4989295;28;20284;-62
2021/01/08 04:28:22;;;;;;;7.53;6.60;;;2.80;1.00;;;;;;4989084;28;20188;-62
2021/01/08 04:30:47;;;;;;;9.90;7.20;;;2.80;1.00;;;;;;4986909;28;20909;-62
2021/01/08 04:33:13;;;;;;;10.53;8.03;;;2.80;1.00;;;;;;4988228;28;20190;-62
2021/01/08 04:35:39;;;;;;;10.20;7.87;;;2.80;1.00;;;;;;4989279;28;20265;-62
2021/01/08 04:38:04;;;;;;;10.43;8.17;;;2.80;1.00;;;;;;4988497;28;20654;-62
2021/01/08 04:40:30;;;;;;;10.57;7.80;;;2.80;1.00;;;;;;4969001;28;611430;-62
2021/01/08 04:42:55;;;;;;;9.50;7.87;;;2.80;1.00;;;;;;4989937;28;20184;-62
2021/01/08 04:45:21;;;;;;;11.13;7.60;;;2.80;1.00;;;;;;4991180;28;20918;-62
2021/01/08 04:47:48;;;;;;;10.77;7.50;;;2.80;1.00;;;;;;4987561;28;20204;-63
2021/01/08 04:50:14;;;;;;;10.95;8.15;;;2.80;1.00;;;;;;4998778;28;20489;-63
2021/01/08 04:52:40;;;;;;;9.07;7.00;;;2.90;1.00;;;;;;4991194;28;20187;-62
2021/01/08 04:55:06;;;;;;;10.93;7.32;;;2.90;1.00;;;;;;4988930;28;20197;-61
2021/01/08 04:57:34;;;;;;;8.60;6.65;;;2.80;1.00;;;;;;4991158;28;20275;-62
2021/01/08 05:00:00;;;;;;;10.23;7.90;;;2.80;1.00;;;;;;4990113;28;20281;-62
2021/01/08 05:02:26;;;;;;;9.37;7.43;;;2.90;1.00;;;;;;4989565;28;20199;-62
2021/01/08 05:04:53;;;;;;;10.57;7.90;;;2.80;1.00;;;;;;4987882;28;20199;-62
2021/01/08 05:07:19;;;;;;;9.65;7.78;;;2.80;1.00;;;;;;4990621;28;20490;-62
2021/01/08 05:09:45;;;;;;;11.30;9.10;;;2.80;1.00;;;;;;4980744;28;20215;-62
2021/01/08 05:12:10;;;;;;;12.17;8.57;;;2.80;1.00;;;;;;4981940;28;20201;-62
2021/01/08 05:14:36;;;;;;;11.00;8.30;;;2.80;1.00;;;;;;4978811;28;20353;-62
2021/01/08 05:17:02;;;;;;;10.40;7.93;;;2.70;1.00;;;;;;4982621;28;20225;-62
2021/01/08 05:19:28;;;;;;;12.13;8.40;;;2.70;1.00;;;;;;4979957;28;20279;-62
2021/01/08 05:21:54;;;;;;;9.23;7.70;;;2.80;1.00;;;;;;4982292;28;20188;-62
2021/01/08 05:24:23;;;;;;;11.70;8.60;;;2.80;1.00;;;;;;4981421;28;20198;-62
2021/01/08 05:26:50;;;;;;;11.07;8.05;;;2.80;1.00;;;;;;4979504;28;20276;-62
2021/01/08 05:29:16;;;;;;;11.48;8.93;;;2.80;1.00;;;;;;4980742;28;20288;-62
2021/01/08 05:31:42;;;;;;;12.70;8.83;;;2.80;1.00;;;;;;4982030;28;20294;-62
2021/01/08 05:34:08;;;;;;;12.07;9.00;;;2.80;1.00;;;;;;4978892;28;20437;-64
2021/01/08 05:36:36;;;;;;;11.97;9.27;;;2.80;1.00;;;;;;4981055;28;20191;-63
2021/01/08 05:39:03;;;;;;;13.27;9.82;;;2.80;1.00;;;;;;4979282;28;20437;-62
2021/01/08 05:41:30;;;;;;;11.77;9.40;;;2.80;1.00;;;;;;4980183;28;20713;-63
2021/01/08 05:43:58;;;;;;;11.13;8.98;;;2.80;1.00;;;;;;4984891;28;20179;-63
2021/01/08 05:46:29;;;;;;;10.88;9.23;;;2.80;1.00;;;;;;4972127;28;20231;-63
2021/01/08 05:49:00;;;;;;;12.30;8.43;;;2.90;1.00;;;;;;4987435;28;20187;-63
2021/01/08 05:51:29;;;;;;;12.35;9.68;;;2.90;1.00;;;;;;4987778;28;20180;-64
2021/01/08 05:53:59;;;;;;;12.45;9.57;;;2.80;1.00;;;;;;4988527;28;20646;-63
2021/01/08 05:56:24;;;;;;;12.68;9.70;;;2.90;1.00;;;;;;4985208;28;20183;-61
2021/01/08 05:58:50;;;;;;;12.00;9.00;;;2.80;1.00;;;;;;4988889;28;20534;-62
2021/01/08 06:01:17;;;;;;;15.20;9.93;;;2.80;1.00;;;;;;4985921;28;20204;-62
2021/01/08 06:03:44;;;;;;;16.58;10.57;;;2.70;1.00;;;;;;4989278;28;20187;-62
2021/01/08 06:06:12;;;;;;;13.57;9.40;;;2.60;1.00;;;;;;4988774;28;20198;-62
2021/01/08 06:08:54;;;;;;;15.73;10.70;;;2.60;11.90;;;;;;4990065;28;20729;-62
2021/01/08 06:11:21;;;;;;;16.23;12.77;;;2.60;12.80;;;;;;4988474;28;20609;-62
2021/01/08 06:13:56;;;;;;;17.60;10.90;;;2.60;9.50;;;;;;4970326;28;20257;-62
2021/01/08 06:16:23;;;;;;;16.38;11.48;;;2.50;10.70;;;;;;4990432;28;20194;-61
2021/01/08 06:18:55;;;;;;;16.58;10.60;;;2.50;9.70;;;;;;4985174;28;20268;-61
2021/01/08 06:21:37;;;;;;;16.35;11.27;;;2.50;12.20;;;;;;4986170;28;20186;-61
2021/01/08 06:24:04;;;;;;;15.60;10.70;;;2.50;20.80;;;;;;4989126;28;20259;-61
2021/01/08 06:26:31;;;;;;;16.05;10.55;;;2.50;21.50;;;;;;4988211;28;20233;-62
2021/01/08 06:29:10;;;;;;;17.20;12.13;;;2.50;19.70;;;;;;4987249;28;20195;-61
2021/01/08 06:31:49;;;;;;;15.88;10.82;;;2.50;21.60;;;;;;4987378;28;20270;-61
2021/01/08 06:34:29;;;;;;;16.85;11.23;;;2.60;21.20;;;;;;4982342;28;20198;-60
2021/01/08 06:37:14;;;;;;;18.45;12.18;;;2.60;13.10;;;;;;4989218;28;20978;-61
2021/01/08 06:39:43;;;;;;;18.00;11.77;;;2.50;23.30;;;;;;4987210;28;20318;-60
2021/01/08 06:42:09;;;;;;;14.25;9.90;;;2.50;22.10;;;;;;4989006;28;20664;-61
2021/01/08 06:44:35;;;;;;;15.85;10.80;;;2.50;23.00;;;;;;4987295;28;20194;-61
2021/01/08 06:47:02;;;;;;;17.67;11.70;;;2.50;24.30;;;;;;4985648;28;20191;-61
2021/01/08 06:49:36;;;;;;;17.63;11.88;;;2.40;28.90;;;;;;4988646;28;20290;-61
2021/01/08 06:52:03;;;;;;;15.75;11.02;;;2.40;31.60;;;;;;4988220;28;20194;-61
2021/01/08 06:54:29;;;;;;;18.73;11.65;;;2.50;35.00;;;;;;4989494;28;20557;-61
2021/01/08 06:57:00;;;;;;;18.77;14.90;;;2.40;38.00;;;;;;4988236;28;20183;-61
2021/01/08 06:59:31;;;;;;;24.60;15.82;;;2.40;38.90;;;;;;4987399;28;20496;-60
2021/01/08 07:02:09;;;;;;;22.13;15.20;;;2.40;39.70;;;;;;4986310;28;20723;-60
2021/01/08 07:04:37;;;;;;;15.93;11.73;;;2.40;43.20;;;;;;4988548;28;20198;-61
2021/01/08 07:07:05;;;;;;;17.58;12.27;;;2.40;45.20;;;;;;4988370;28;20900;-61
2021/01/08 07:09:36;;;;;;;18.92;12.13;;;2.40;48.40;;;;;;4989719;28;20206;-61
2021/01/08 07:12:04;;;;;;;22.05;15.45;;;2.40;51.80;;;;;;4988534;28;20563;-61
2021/01/08 07:14:31;;;;;;;19.30;12.90;;;2.40;53.50;;;;;;4989490;28;20190;-61
2021/01/08 07:16:58;;;;;;;17.27;12.90;;;2.30;56.50;;;;;;4988584;28;20188;-61
2021/01/08 07:19:26;;;;;;;17.27;12.75;;;2.30;58.70;;;;;;4987047;28;20685;-61
2021/01/08 07:21:58;;;;;;;16.95;11.60;;;2.40;59.40;;;;;;4987090;28;20202;-62
2021/01/08 07:24:32;;;;;;;17.25;11.65;;;2.30;61.40;;;;;;4987950;28;20202;-62
2021/01/08 07:27:24;;;;;;;18.80;12.68;;;2.30;63.60;;;;;;4987698;28;20183;-61
2021/01/08 07:30:02;;;;;;;19.52;12.70;;;2.30;65.70;;;;;;4988881;28;20221;-61
2021/01/08 07:32:31;;;;;;;17.75;12.50;;;2.30;68.70;;;;;;4984911;28;20286;-61
2021/01/08 07:34:57;;;;;;;20.15;12.93;;;2.40;66.00;;;;;;4983395;28;20194;-61
2021/01/08 07:37:56;;;;;;;21.17;12.53;;;2.40;64.90;;;;;;4991908;28;20251;-62
2021/01/08 07:40:22;;;;;;;18.17;12.23;;;2.40;65.20;;;;;;4992209;28;20552;-62
2021/01/08 07:43:00;;;;;;;18.88;12.55;;;2.30;68.40;;;;;;4991652;28;20223;-61
2021/01/08 07:45:55;;;;;;;18.70;12.95;;;2.40;68.00;;;;;;4990652;28;20214;-61
2021/01/08 07:48:22;;;;;;;20.02;12.60;;;2.40;65.40;;;;;;4992639;28;20206;-61
2021/01/08 07:51:07;;;;;;;15.65;11.68;;;2.40;66.90;;;;;;4990752;28;20206;-61
2021/01/08 07:53:42;;;;;;;19.95;12.80;;;2.40;61.80;;;;;;4992525;28;20266;-61
2021/01/08 07:56:12;;;;;;;18.05;12.27;;;2.50;62.20;;;;;;4981814;28;20271;-61
2021/01/08 07:58:38;;;;;;;19.33;13.60;;;2.50;59.30;;;;;;4986826;28;20252;-62
2021/01/08 08:01:05;;;;;;;19.52;13.23;;;2.50;59.80;;;;;;4990013;28;20274;-63
2021/01/08 08:03:31;;;;;;;29.45;14.77;;;2.50;58.90;;;;;;4990325;28;20198;-63
2021/01/08 08:06:00;;;;;;;19.30;13.10;;;2.50;58.80;;;;;;4991634;28;20624;-63
2021/01/08 08:08:26;;;;;;;19.45;12.98;;;2.60;56.50;;;;;;4987465;28;20447;-63
2021/01/08 08:10:51;;;;;;;22.23;14.37;;;2.60;56.40;;;;;;4990713;28;20218;-62
2021/01/08 08:13:27;;;;;;;19.73;13.53;;;2.60;55.90;;;;;;4980738;28;20212;-63
2021/01/08 08:15:52;;;;;;;22.23;13.25;;;2.70;56.40;;;;;;4989229;28;20187;-63
2021/01/08 08:18:18;;;;;;;20.57;13.50;;;2.60;53.80;;;;;;4990422;28;20187;-63
2021/01/08 08:20:43;;;;;;;20.23;13.20;;;2.60;54.40;;;;;;4987521;28;20190;-63
2021/01/08 08:23:17;;;;;;;21.23;12.63;;;2.60;56.40;;;;;;4975504;28;20199;-64
2021/01/08 08:25:43;;;;;;;18.55;12.80;;;2.70;57.70;;;;;;4996141;28;20191;-63
2021/01/08 08:28:09;;;;;;;17.17;11.70;;;2.70;55.90;;;;;;4989941;28;20518;-63
2021/01/08 08:30:35;;;;;;;18.58;12.95;;;2.70;52.00;;;;;;4988787;28;20266;-63
2021/01/08 08:33:04;;;;;;;18.00;12.40;;;2.70;53.10;;;;;;4990165;28;20930;-62
2021/01/08 08:35:33;;;;;;;19.30;12.65;;;2.70;52.60;;;;;;4988635;28;20188;-64
2021/01/08 08:37:59;;;;;;;18.15;12.68;;;2.70;58.20;;;;;;4989466;28;20191;-63
2021/01/08 08:40:27;;;;;;;18.50;13.23;;;2.70;63.20;;;;;;4989855;28;20245;-63
2021/01/08 08:42:54;;;;;;;20.13;12.75;;;2.80;62.40;;;;;;4989033;28;20191;-63
2021/01/08 08:45:21;;;;;;;19.73;12.95;;;2.80;61.10;;;;;;4989711;28;20274;-64
2021/01/08 08:47:49;;;;;;;20.83;13.63;;;2.70;64.10;;;;;;4988664;28;20568;-64
2021/01/08 08:50:16;;;;;;;20.08;12.90;;;2.80;66.80;;;;;;4990220;28;20196;-64
2021/01/08 08:52:44;;;;;;;19.77;12.48;;;2.90;64.00;;;;;;4986894;28;20188;-63
2021/01/08 08:55:30;;;;;;;21.88;13.90;;;2.90;59.90;;;;;;4989156;28;20176;-63
2021/01/08 08:58:11;;;;;;;17.63;12.20;;;2.90;59.30;;;;;;4989360;28;20199;-63
2021/01/08 09:00:39;;;;;;;17.23;13.15;;;3.00;58.60;;;;;;4987829;28;20252;-63
2021/01/08 09:03:19;;;;;;;21.98;14.10;;;3.00;58.30;;;;;;4989961;28;20188;-63
2021/01/08 09:05:46;;;;;;;18.17;12.20;;;3.00;53.30;;;;;;4987085;28;20250;-63
2021/01/08 09:08:20;;;;;;;18.63;13.10;;;3.00;56.10;;;;;;4989450;28;20188;-63
2021/01/08 09:10:57;;;;;;;16.85;11.88;;;3.10;54.20;;;;;;4988097;28;20207;-63
2021/01/08 09:13:38;;;;;;;18.40;12.15;;;3.00;53.60;;;;;;4978719;28;20242;-62
2021/01/08 09:16:28;;;;;;;16.50;11.75;;;3.00;53.80;;;;;;4988000;28;20183;-63
2021/01/08 09:19:05;;;;;;;18.92;12.50;;;3.00;49.60;;;;;;4984117;28;20184;-64
2021/01/08 09:21:40;;;;;;;17.08;12.02;;;3.00;50.70;;;;;;4987799;28;20225;-64
2021/01/08 09:24:10;;;;;;;21.10;13.27;;;3.00;56.10;;;;;;4986582;28;20186;-64
2021/01/08 09:26:38;;;;;;;19.90;14.20;;;2.90;55.80;;;;;;4986425;28;20590;-63
2021/01/08 09:29:03;;;;;;;17.60;12.07;;;2.90;58.70;;;;;;4987594;28;20186;-64
2021/01/08 09:31:43;;;;;;;17.40;12.67;;;2.90;61.80;;;;;;4987378;28;20218;-63
2021/01/08 09:34:10;;;;;;;18.30;12.50;;;2.90;63.50;;;;;;4988879;28;20237;-62
2021/01/08 09:36:38;;;;;;;16.83;12.40;;;2.90;47.70;;;;;;4988888;28;20204;-62
2021/01/08 09:39:09;;;;;;;16.45;11.48;;;2.90;37.40;;;;;;4987969;28;20195;-63
2021/01/08 09:41:36;;;;;;;17.65;13.07;;;2.90;71.40;;;;;;4988894;28;20352;-63
2021/01/08 09:44:04;;;;;;;19.50;13.02;;;3.00;72.70;;;;;;4988356;28;20187;-63
2021/01/08 09:46:30;;;;;;;17.70;13.02;;;3.00;39.10;;;;;;4987533;28;20217;-63
2021/01/08 09:49:05;;;;;;;17.60;12.03;;;3.00;69.90;;;;;;4988502;28;20206;-63
2021/01/08 09:51:31;;;;;;;18.52;12.55;;;2.90;71.60;;;;;;4988969;28;20214;-62
2021/01/08 09:53:57;;;;;;;16.20;11.75;;;2.90;76.20;;;;;;4987732;28;20187;-63
2021/01/08 09:56:23;;;;;;;17.33;11.80;;;2.80;80.20;;;;;;4988296;28;20644;-63
2021/01/08 09:59:15;;;;;;;16.73;11.70;;;2.80;84.80;;;;;;4989390;28;20426;-63
2021/01/08 10:01:58;;;;;;;17.80;12.60;;;2.90;90.00;;;;;;4989076;28;20638;-62
2021/01/08 10:04:28;;;;;;;17.38;11.88;;;2.90;85.40;;;;;;4980990;28;20190;-62
2021/01/08 10:07:05;;;;;;;17.08;12.13;;;2.90;90.00;;;;;;4988856;28;20195;-63
2021/01/08 10:09:53;;;;;;;17.33;12.02;;;3.00;90.90;;;;;;4985993;28;20611;-62
2021/01/08 10:12:22;;;;;;;18.42;12.70;;;3.10;87.20;;;;;;4988221;28;20546;-63
2021/01/08 10:14:47;;;;;;;17.00;12.30;;;3.00;84.90;;;;;;4985130;28;20205;-62
2021/01/08 10:17:15;;;;;;;20.07;12.67;;;3.10;82.10;;;;;;4987770;28;20183;-65
2021/01/08 10:19:45;;;;;;;19.63;13.30;;;3.10;82.00;;;;;;4984573;28;21225;-66
2021/01/08 10:22:11;;;;;;;19.02;12.90;;;3.10;85.90;;;;;;4988197;28;20194;-65
2021/01/08 10:24:37;;;;;;;19.33;13.67;;;3.10;87.60;;;;;;4987275;28;20196;-66
2021/01/08 10:27:04;;;;;;;19.70;13.50;;;3.10;85.50;;;;;;4988789;28;20187;-65
2021/01/08 10:29:34;;;;;;;17.90;13.05;;;3.00;87.20;;;;;;5002579;28;20211;-66
2021/01/08 10:32:06;;;;;;;19.83;13.30;;;3.00;89.90;;;;;;4986492;28;20184;-65
2021/01/08 10:34:44;;;;;;;17.95;13.15;;;3.00;93.20;;;;;;4986988;28;20190;-66
2021/01/08 10:37:16;;;;;;;17.90;12.80;;;3.00;93.70;;;;;;4987066;28;20213;-65
2021/01/08 10:39:42;;;;;;;16.75;12.32;;;3.00;94.30;;;;;;4987620;28;20701;-65
2021/01/08 10:42:09;;;;;;;18.20;12.75;;;2.90;96.60;;;;;;4987911;28;20210;-65
2021/01/08 10:44:34;;;;;;;20.55;14.27;;;2.90;99.20;;;;;;4986937;28;20202;-65
2021/01/08 10:47:00;;;;;;;18.53;12.93;;;3.00;99.90;;;;;;4988101;28;20202;-65
2021/01/08 10:49:26;;;;;;;18.10;13.87;;;3.00;99.00;;;;;;4986168;28;20294;-66
2021/01/08 10:51:51;;;;;;;19.47;13.40;;;3.10;99.90;;;;;;4984932;28;20195;-66
2021/01/08 10:54:18;;;;;;;20.23;13.13;;;3.10;99.90;;;;;;4985348;28;20184;-66
2021/01/08 10:56:44;;;;;;;20.33;14.43;;;3.20;99.90;;;;;;4988521;28;20218;-63
2021/01/08 10:59:11;;;;;;;20.60;13.60;;;3.30;99.90;;;;;;4987352;28;21040;-63
2021/01/08 11:01:42;;;;;;;18.00;13.25;;;3.30;98.20;;;;;;5002954;28;20202;-64
2021/01/08 11:04:08;;;;;;;19.52;13.32;;;3.30;95.50;;;;;;4988486;28;20306;-64
2021/01/08 11:06:34;;;;;;;23.13;14.60;;;3.40;96.30;;;;;;4986755;28;20239;-64
2021/01/08 11:08:59;;;;;;;23.23;15.57;;;3.30;94.00;;;;;;4990541;28;20572;-65
2021/01/08 11:11:25;;;;;;;20.33;13.53;;;3.30;93.50;;;;;;4991684;28;20203;-64
2021/01/08 11:13:50;;;;;;;23.10;14.70;;;3.30;94.30;;;;;;4991748;28;20640;-65
2021/01/08 11:16:16;;;;;;;21.30;14.80;;;3.30;96.10;;;;;;4991080;28;20172;-65
2021/01/08 11:18:42;;;;;;;23.37;15.10;;;3.40;94.90;;;;;;4991049;28;20191;-65
2021/01/08 11:21:08;;;;;;;19.38;13.43;;;3.40;96.40;;;;;;4984763;28;20190;-64
2021/01/08 11:23:36;;;;;;;20.20;14.03;;;3.40;93.10;;;;;;4990794;28;20202;-65
2021/01/08 11:26:02;;;;;;;22.77;15.75;;;3.40;94.10;;;;;;4988832;28;20207;-64
2021/01/08 11:28:28;;;;;;;20.15;15.23;;;3.30;94.20;;;;;;4990948;28;20680;-65
2021/01/08 11:30:53;;;;;;;12.37;9.67;;;3.30;96.00;;;;;;4990456;28;20208;-65
2021/01/08 11:33:19;;;;;;;11.73;9.10;;;3.40;51.80;;;;;;4980961;28;20227;-64
2021/01/08 11:35:44;;;;;;;10.60;8.40;;;3.50;63.10;;;;;;4990193;28;20191;-65
2021/01/08 11:38:10;;;;;;;9.70;7.50;;;3.60;43.90;;;;;;4991333;28;20226;-64
2021/01/08 11:40:35;;;;;;;9.20;7.27;;;3.70;29.90;;;;;;4990864;28;20691;-63
2021/01/08 11:43:02;;;;;;;10.23;7.20;;;3.60;20.10;;;;;;4991190;28;20191;-62
2021/01/08 11:45:28;;;;;;;9.57;7.65;;;3.60;25.90;;;;;;4988565;28;20618;-63
2021/01/08 11:47:53;;;;;;;9.70;7.60;;;3.60;29.20;;;;;;4990705;28;20190;-63
2021/01/08 11:50:19;;;;;;;7.63;6.40;;;3.70;19.50;;;;;;4986060;28;20219;-64
2021/01/08 11:52:44;;;;;;;11.07;7.60;;;3.70;2.30;;;;;;4987558;28;20327;-64
2021/01/08 11:55:10;;;;;;;9.30;7.50;;;3.70;6.50;;;;;;4991520;28;20214;-63
2021/01/08 11:57:36;;;;;;;7.77;6.13;;;3.70;1.40;;;;;;4990218;28;20287;-64
2021/01/08 12:00:02;;;;;;;8.90;7.20;;;3.70;1.00;;;;;;4990811;28;20184;-64
2021/01/08 12:02:29;;;;;;;8.43;7.25;;;3.70;1.00;;;;;;4990946;28;20203;-66
2021/01/08 12:04:54;;;;;;;7.63;6.82;;;3.70;1.00;;;;;;4990947;28;20526;-63
2021/01/08 12:07:20;;;;;;;13.47;7.07;;;3.80;1.00;;;;;;4983052;28;20203;-62
2021/01/08 12:09:46;;;;;;;10.17;7.03;;;3.80;1.00;;;;;;4990739;28;20253;-62
2021/01/08 12:12:12;;;;;;;8.97;6.90;;;3.80;1.00;;;;;;4990006;28;20178;-65
2021/01/08 12:14:37;;;;;;;10.45;7.32;;;3.80;1.00;;;;;;4991105;28;20730;-62
2021/01/08 12:17:07;;;;;;;8.80;7.00;;;3.90;1.00;;;;;;4989865;28;20188;-63
2021/01/08 12:19:34;;;;;;;9.18;7.53;;;3.90;1.00;;;;;;4979949;28;20238;-65
2021/01/08 12:21:59;;;;;;;7.75;6.75;;;3.90;1.00;;;;;;4991121;28;20187;-66
2021/01/08 12:24:25;;;;;;;8.83;7.30;;;3.90;1.00;;;;;;4990465;28;20195;-63
2021/01/08 12:26:55;;;;;;;8.50;6.83;;;4.00;1.00;;;;;;4991050;28;20657;-66
2021/01/08 12:29:21;;;;;;;7.05;5.65;;;4.00;1.00;;;;;;4990527;28;20230;-66
2021/01/08 12:31:47;;;;;;;10.23;7.32;;;4.00;1.00;;;;;;4990844;28;20188;-66
2021/01/08 12:34:13;;;;;;;9.83;7.30;;;3.90;1.00;;;;;;4989330;28;20184;-65
2021/01/08 12:36:39;;;;;;;7.70;6.43;;;3.90;1.00;;;;;;4990291;28;20188;-64
2021/01/08 12:39:05;;;;;;;8.00;7.20;;;3.90;1.00;;;;;;4989423;28;20195;-66
2021/01/08 12:41:31;;;;;;;8.10;6.72;;;3.90;1.00;;;;;;4986011;28;20706;-64
2021/01/08 12:43:57;;;;;;;8.80;7.45;;;3.90;1.00;;;;;;4990315;28;20192;-63
2021/01/08 12:46:23;;;;;;;8.87;7.00;;;3.90;1.00;;;;;;4990188;28;20187;-63
2021/01/08 12:48:49;;;;;;;8.50;6.93;;;4.00;1.00;;;;;;4990083;28;20438;-63
2021/01/08 12:51:14;;;;;;;9.30;7.90;;;4.00;1.00;;;;;;4989515;28;20200;-62
2021/01/08 12:53:41;;;;;;;8.00;6.60;;;4.10;1.00;;;;;;4987759;28;20218;-62
2021/01/08 12:56:07;;;;;;;10.20;7.60;;;4.10;1.00;;;;;;4988964;28;20467;-63
2021/01/08 12:58:33;;;;;;;9.00;6.77;;;4.00;1.00;;;;;;4989831;28;20622;-63